עמוד ראשי
METAR-TAF:

METAR-TAF

שדות תעופה :

Ouarzazate, מרוקו

קו רוחב: 30-56N, קו אורך: 006-54W, גובה: 1139מטר

תצפית מזג אוויר נוכחית

הדו"ח נערך לפני 26דקות, בשעה 11:00 UTC
רוח 3קשר מכיוון דרום
טמפרטורת 36 צלסיוס
לחות 8%
לחץ 1013 hPa
ראות: 8000מטר

METAR: GMMZ 251100Z 17003KT 8000 NSC 36/M04 Q1013 NOSIG

זמן: 12:26 (11:26 UTC)

תחזית

הדו"ח נערך לפני 6 שעות ו 26דקות, בשעה 05:00 UTC
תחזית בתוקף מ 25 ב 06 UTC עד 26 ב 12 UTC
רוח 4קשר מכיוון מערב
ראות: 8000מטר
זמנית מ -
25 ב 17 UTC עד 25 ב 21 UTC
רוח 18קשר מכיוון דרום

TAF: GMMZ 250500Z 2506/2612 28004KT 8000 NSC TEMPO 2517/2521 19018KT

תצפיות ותחזיות מזג אוויר לגבי יותר מ- 4,000 שדות תעופה ברחבי העולם. דוחות METAR ו- TAF.

התחנות הזמינות מסומנות בנקודות צהובות ואדומות על גבי המפה.

העבר את העכבר לנקודה הצבעונית על מנת לראות את שם התחנה.

לאחר מכן, לחץ כדי לראות את תוכן ואת תחזיות מזג האוויר.

כדי לשנות את המפה: לחץ על הכפתורים הירוקים עם הפלוס השחור כדי להתקרב; על הכפתור הירוק עם המקף כדי להתרחק; או בחיצים הירוקים למפות סמוכות.


METAR-TAF: